Time;durP1;ratioP1;P1;durP2;ratioP2;P2;SDS_P1;SDS_P2;PMS_P1;PMS_P2;Temp;Humidity;BMP_temperature;BMP_pressure;BME280_temperature;BME280_humidity;BME280_pressure;Samples;Min_cycle;Max_cycle;Signal;HPM_P1;HPM_P2
2022/11/15 00:01:20;;;;;;;13.13;8.10;;;9.80;99.90;;;;;;5112160;28;20189;-75
2022/11/15 00:03:46;;;;;;;9.23;6.60;;;9.80;99.90;;;;;;5112716;28;20554;-75
2022/11/15 00:06:12;;;;;;;9.80;6.43;;;9.90;99.90;;;;;;5112330;28;20219;-75
2022/11/15 00:08:37;;;;;;;10.90;7.30;;;9.90;99.90;;;;;;5112826;28;20166;-75
2022/11/15 00:11:03;;;;;;;11.90;8.03;;;9.90;99.90;;;;;;5112844;28;20427;-76
2022/11/15 00:13:29;;;;;;;10.27;7.23;;;10.00;99.90;;;;;;5113637;28;20168;-75
2022/11/15 00:16:00;;;;;;;12.20;7.40;;;10.00;99.90;;;;;;5115986;28;20172;-77
2022/11/15 00:18:25;;;;;;;9.17;7.20;;;10.00;99.90;;;;;;5114924;28;20481;-76
2022/11/15 00:20:51;;;;;;;9.70;7.10;;;10.00;99.90;;;;;;5116381;27;20900;-76
2022/11/15 00:23:16;;;;;;;11.20;7.17;;;10.00;99.90;;;;;;5115031;28;20283;-76
2022/11/15 00:25:42;;;;;;;11.60;7.20;;;10.00;99.90;;;;;;5114902;28;20165;-75
2022/11/15 00:28:07;;;;;;;13.50;7.43;;;10.10;99.90;;;;;;5116215;28;20507;-75
2022/11/15 00:30:34;;;;;;;13.73;8.80;;;10.10;99.90;;;;;;5114256;28;20221;-75
2022/11/15 00:33:04;;;;;;;13.33;7.93;;;10.00;99.90;;;;;;5116155;28;20161;-75
2022/11/15 00:35:34;;;;;;;12.83;7.97;;;10.00;99.90;;;;;;5115262;28;20402;-75
2022/11/15 00:38:01;;;;;;;8.30;6.53;;;10.00;99.90;;;;;;5114194;28;20422;-75
2022/11/15 00:40:26;;;;;;;9.17;6.40;;;10.10;99.90;;;;;;5114483;28;20449;-75
2022/11/15 00:42:52;;;;;;;8.23;6.40;;;10.10;99.90;;;;;;5114102;28;20486;-75
2022/11/15 00:45:17;;;;;;;8.50;6.27;;;10.20;99.90;;;;;;5115006;28;20196;-75
2022/11/15 00:47:46;;;;;;;12.17;7.57;;;10.20;99.90;;;;;;5115380;28;20299;-76
2022/11/15 00:50:13;;;;;;;8.67;6.50;;;10.20;99.90;;;;;;5114022;28;20597;-75
2022/11/15 00:52:38;;;;;;;7.97;6.67;;;10.20;99.90;;;;;;5114961;28;20426;-75
2022/11/15 00:55:04;;;;;;;15.13;6.80;;;10.20;99.90;;;;;;5114780;28;20437;-76
2022/11/15 00:57:30;;;;;;;12.70;7.17;;;10.30;99.90;;;;;;5115107;28;20168;-76
2022/11/15 00:59:55;;;;;;;9.60;7.20;;;10.20;99.90;;;;;;5114981;28;20808;-76
2022/11/15 01:02:21;;;;;;;8.57;6.80;;;10.20;99.90;;;;;;5113522;28;20201;-76
2022/11/15 01:04:46;;;;;;;15.07;7.77;;;10.30;99.90;;;;;;5114842;28;20173;-75
2022/11/15 01:07:12;;;;;;;11.00;6.03;;;10.30;99.90;;;;;;5115621;28;20249;-75
2022/11/15 01:09:37;;;;;;;10.17;7.40;;;10.20;99.90;;;;;;5120109;27;20205;-76
2022/11/15 01:12:03;;;;;;;8.97;6.47;;;10.20;99.90;;;;;;5114874;28;20196;-76
2022/11/15 01:14:29;;;;;;;9.93;6.67;;;10.20;99.90;;;;;;5114447;28;20173;-76
2022/11/15 01:16:54;;;;;;;12.70;8.03;;;10.20;99.90;;;;;;5114779;28;20403;-75
2022/11/15 01:19:20;;;;;;;11.00;7.37;;;10.20;99.90;;;;;;5114600;28;20164;-75
2022/11/15 01:21:49;;;;;;;11.77;7.93;;;10.20;99.90;;;;;;5114540;27;20196;-75
2022/11/15 01:24:15;;;;;;;11.83;6.43;;;10.20;99.90;;;;;;5113680;28;20209;-76
2022/11/15 01:26:40;;;;;;;9.07;6.20;;;10.20;99.90;;;;;;5114507;28;20741;-75
2022/11/15 01:29:06;;;;;;;12.00;8.10;;;10.30;99.90;;;;;;5114196;28;20181;-75
2022/11/15 01:31:31;;;;;;;11.00;7.60;;;10.30;99.90;;;;;;5114378;28;20263;-76
2022/11/15 01:33:57;;;;;;;9.40;7.43;;;10.40;99.90;;;;;;5113067;28;20206;-76
2022/11/15 01:36:23;;;;;;;10.50;7.87;;;10.40;99.90;;;;;;5112957;28;20161;-76
2022/11/15 01:38:56;;;;;;;13.60;8.27;;;10.50;99.90;;;;;;5114194;28;20630;-76
2022/11/15 01:41:28;;;;;;;15.97;7.87;;;10.50;99.90;;;;;;5114533;28;20188;-75
2022/11/15 01:43:56;;;;;;;11.17;7.33;;;10.50;99.90;;;;;;5114638;28;20399;-74
2022/11/15 01:46:30;;;;;;;8.73;6.90;;;10.60;99.90;;;;;;5112713;28;20421;-76
2022/11/15 01:49:00;;;;;;;8.57;6.47;;;10.60;99.90;;;;;;5114047;27;20397;-76
2022/11/15 01:51:28;;;;;;;14.17;8.50;;;10.60;99.90;;;;;;5113898;28;20831;-76
2022/11/15 01:53:59;;;;;;;9.73;7.60;;;10.60;99.90;;;;;;5114387;28;20421;-76
2022/11/15 01:56:29;;;;;;;8.90;5.80;;;10.70;99.90;;;;;;5114134;28;20477;-75
2022/11/15 01:58:58;;;;;;;12.40;7.60;;;10.70;99.90;;;;;;5114143;28;20388;-76
2022/11/15 02:01:25;;;;;;;12.30;7.80;;;10.70;99.90;;;;;;5114291;28;20431;-75
2022/11/15 02:03:56;;;;;;;10.67;7.77;;;10.80;99.90;;;;;;5113717;28;20402;-75
2022/11/15 02:06:22;;;;;;;12.70;8.43;;;10.90;99.90;;;;;;5113850;28;20407;-76
2022/11/15 02:08:49;;;;;;;12.47;7.73;;;10.90;99.90;;;;;;5112352;28;20402;-75
2022/11/15 02:11:15;;;;;;;11.60;8.00;;;11.00;99.90;;;;;;5113652;28;20583;-76
2022/11/15 02:13:41;;;;;;;14.13;8.53;;;11.00;99.90;;;;;;5111950;28;20434;-75
2022/11/15 02:16:47;;;;;;;14.07;8.73;;;11.10;99.90;;;;;;5125503;27;20533;-75
2022/11/15 02:19:22;;;;;;;13.60;8.23;;;11.00;99.90;;;;;;5112686;28;20413;-75
2022/11/15 02:22:11;;;;;;;16.13;7.57;;;11.10;99.90;;;;;;5113367;28;20549;-76
2022/11/15 02:25:00;;;;;;;12.63;6.30;;;11.10;99.90;;;;;;5113227;28;20403;-75
2022/11/15 02:27:46;;;;;;;14.50;8.70;;;11.00;99.90;;;;;;5113740;28;20502;-76
2022/11/15 02:30:12;;;;;;;10.90;7.47;;;11.10;99.90;;;;;;5113202;28;20772;-76
2022/11/15 02:32:52;;;;;;;11.60;6.80;;;11.10;99.90;;;;;;5113115;28;20422;-76
2022/11/15 02:35:36;;;;;;;9.63;6.53;;;11.20;99.90;;;;;;5112831;28;20188;-74
2022/11/15 02:38:29;;;;;;;7.30;6.57;;;11.20;99.90;;;;;;5112882;28;20411;-75
2022/11/15 02:41:02;;;;;;;10.63;7.90;;;11.20;99.90;;;;;;5111631;28;20441;-75
2022/11/15 02:43:56;;;;;;;10.40;7.50;;;11.20;99.90;;;;;;5113073;28;20452;-75
2022/11/15 02:47:12;;;;;;;16.23;7.10;;;11.30;99.90;;;;;;5113014;28;20410;-75
2022/11/15 02:49:14;;;;;;;11.23;8.53;;;11.30;99.90;;;;;;5113064;28;20411;-76
2022/11/15 02:51:41;;;;;;;12.10;7.30;;;11.40;99.90;;;;;;5112810;28;20492;-76
2022/11/15 02:54:08;;;;;;;14.90;7.07;;;11.40;99.90;;;;;;5112915;28;20434;-76
2022/11/15 02:56:34;;;;;;;9.03;5.97;;;11.30;99.90;;;;;;5112958;27;20406;-75
2022/11/15 02:59:18;;;;;;;11.23;6.70;;;11.30;99.90;;;;;;5113227;28;20835;-75
2022/11/15 03:01:52;;;;;;;11.57;7.30;;;11.40;99.90;;;;;;5113056;28;20192;-75
2022/11/15 03:04:43;;;;;;;9.27;6.40;;;11.40;99.90;;;;;;5112879;28;20888;-75
2022/11/15 03:07:49;;;;;;;11.67;7.33;;;11.40;99.90;;;;;;5113243;28;20414;-75
2022/11/15 03:10:29;;;;;;;11.27;6.37;;;11.40;99.90;;;;;;5113490;28;20382;-75
2022/11/15 03:13:00;;;;;;;13.93;7.67;;;11.40;99.90;;;;;;5113086;28;20880;-75
2022/11/15 03:15:36;;;;;;;8.20;6.10;;;11.50;99.90;;;;;;5111833;28;20406;-75
2022/11/15 03:18:11;;;;;;;13.90;6.63;;;11.50;99.90;;;;;;5111796;28;20406;-75
2022/11/15 03:20:37;;;;;;;10.33;6.40;;;11.50;99.90;;;;;;5112815;28;20926;-76
2022/11/15 03:23:09;;;;;;;17.43;7.27;;;11.50;99.90;;;;;;5110985;28;20502;-76
2022/11/15 03:25:38;;;;;;;10.63;6.90;;;11.40;99.90;;;;;;5113373;28;20164;-75
2022/11/15 03:28:07;;;;;;;9.30;6.10;;;11.50;99.90;;;;;;5123958;28;20402;-75
2022/11/15 03:30:36;;;;;;;10.40;7.07;;;11.50;99.90;;;;;;5110986;28;20812;-75
2022/11/15 03:33:04;;;;;;;11.53;6.07;;;11.50;99.90;;;;;;5112657;28;20539;-75
2022/11/15 03:35:42;;;;;;;10.93;7.33;;;11.50;99.90;;;;;;5112455;28;20551;-75
2022/11/15 03:38:14;;;;;;;10.03;6.63;;;11.50;99.90;;;;;;5113016;28;20394;-75
2022/11/15 03:40:42;;;;;;;9.73;7.10;;;11.50;99.90;;;;;;5111296;28;20431;-75
2022/11/15 03:43:30;;;;;;;12.17;6.00;;;11.50;99.90;;;;;;5110774;28;20457;-74
2022/11/15 03:46:04;;;;;;;9.93;7.10;;;11.50;99.90;;;;;;5112011;28;20399;-75
2022/11/15 03:48:35;;;;;;;9.13;6.43;;;11.50;99.90;;;;;;5115647;28;20403;-75
2022/11/15 03:51:02;;;;;;;10.97;7.57;;;11.60;99.90;;;;;;5116907;28;20402;-75
2022/11/15 03:53:28;;;;;;;8.67;6.20;;;11.60;99.90;;;;;;5116832;28;20493;-75
2022/11/15 03:55:54;;;;;;;9.00;6.27;;;11.60;99.90;;;;;;5115869;28;20446;-75
2022/11/15 03:58:19;;;;;;;8.30;6.77;;;11.60;99.90;;;;;;5116357;28;20434;-74
2022/11/15 04:00:45;;;;;;;11.33;6.50;;;11.70;99.90;;;;;;5115393;28;20702;-75
2022/11/15 04:03:10;;;;;;;6.73;4.97;;;11.70;99.90;;;;;;5116619;28;20284;-75
2022/11/15 04:05:36;;;;;;;8.03;5.90;;;11.70;99.90;;;;;;5116589;28;20157;-75
2022/11/15 04:08:01;;;;;;;6.77;5.37;;;11.80;99.90;;;;;;5116519;28;20169;-75
2022/11/15 04:10:27;;;;;;;11.50;5.93;;;11.80;99.90;;;;;;5116492;28;20658;-75
2022/11/15 04:12:52;;;;;;;12.00;6.27;;;11.80;99.90;;;;;;5116272;28;20214;-76
2022/11/15 04:15:20;;;;;;;11.53;6.10;;;11.80;99.90;;;;;;5116218;28;20517;-75
2022/11/15 04:17:48;;;;;;;11.13;6.93;;;11.70;99.90;;;;;;5116174;28;20181;-75
2022/11/15 04:25:51;;;;;;;8.20;5.97;;;11.70;99.90;;;;;;5115804;28;20420;-76
2022/11/15 04:28:17;;;;;;;9.87;7.20;;;11.60;99.90;;;;;;5115571;28;20419;-75
2022/11/15 04:30:42;;;;;;;11.50;6.57;;;11.60;99.90;;;;;;5114611;28;20437;-75
2022/11/15 04:33:08;;;;;;;10.10;6.63;;;11.60;99.90;;;;;;5117550;28;20700;-74
2022/11/15 04:35:34;;;;;;;11.20;6.73;;;11.60;99.90;;;;;;5115430;28;20260;-76
2022/11/15 04:38:00;;;;;;;7.73;6.20;;;11.70;99.90;;;;;;5115777;27;20165;-76
2022/11/15 04:40:25;;;;;;;10.03;5.80;;;11.70;99.90;;;;;;5115288;28;20232;-74
2022/11/15 04:42:51;;;;;;;14.13;7.90;;;11.70;99.90;;;;;;5115436;28;20533;-76
2022/11/15 04:45:17;;;;;;;9.17;6.60;;;11.70;99.90;;;;;;5115584;28;20537;-75
2022/11/15 04:47:46;;;;;;;11.30;7.53;;;11.80;99.90;;;;;;5115842;28;20161;-75
2022/11/15 04:50:13;;;;;;;8.17;5.90;;;11.80;99.90;;;;;;5115151;28;20161;-75
2022/11/15 04:52:40;;;;;;;7.93;5.87;;;11.70;99.90;;;;;;5094935;28;20424;-76
2022/11/15 04:55:06;;;;;;;10.23;6.90;;;11.80;99.90;;;;;;5094810;28;20452;-76
2022/11/15 04:57:32;;;;;;;8.30;6.03;;;11.80;99.90;;;;;;5095226;28;20900;-76
2022/11/15 04:59:57;;;;;;;8.40;6.43;;;11.80;99.90;;;;;;5094717;28;20173;-77
2022/11/15 05:02:23;;;;;;;9.77;6.27;;;11.80;99.90;;;;;;5093616;28;20197;-75
2022/11/15 05:04:48;;;;;;;9.13;6.20;;;11.80;99.90;;;;;;5114014;28;20185;-75
2022/11/15 05:07:14;;;;;;;9.47;5.80;;;11.90;99.90;;;;;;5114801;28;20169;-75
2022/11/15 05:09:39;;;;;;;7.80;4.53;;;11.90;99.90;;;;;;5115213;28;20240;-76
2022/11/15 05:12:05;;;;;;;8.13;5.27;;;11.90;99.90;;;;;;5115347;28;20699;-75
2022/11/15 05:14:30;;;;;;;9.67;5.47;;;11.90;99.90;;;;;;5114978;28;20676;-75
2022/11/15 05:16:56;;;;;;;6.23;5.23;;;11.80;99.90;;;;;;5115013;28;20169;-75
2022/11/15 05:19:21;;;;;;;9.70;5.77;;;11.80;99.90;;;;;;5116442;28;20172;-76
2022/11/15 05:21:47;;;;;;;8.90;5.50;;;11.80;99.90;;;;;;5116766;28;20192;-76
2022/11/15 05:24:13;;;;;;;8.13;7.07;;;11.90;99.90;;;;;;5116805;28;20177;-76
2022/11/15 05:26:38;;;;;;;9.17;6.03;;;11.90;99.90;;;;;;5116013;28;20188;-76
2022/11/15 05:29:04;;;;;;;10.10;5.20;;;11.80;99.90;;;;;;5115585;28;20204;-76
2022/11/15 05:31:29;;;;;;;5.90;4.30;;;11.80;99.90;;;;;;5115954;28;20189;-76
2022/11/15 05:33:56;;;;;;;9.27;5.20;;;11.80;99.90;;;;;;5116431;28;20157;-76
2022/11/15 05:36:24;;;;;;;10.00;4.83;;;11.80;99.90;;;;;;5114671;28;20552;-76
2022/11/15 05:38:50;;;;;;;5.97;4.70;;;11.70;99.90;;;;;;5113251;28;20494;-75
2022/11/15 05:41:18;;;;;;;7.83;5.10;;;11.70;99.90;;;;;;5113560;28;20533;-75
2022/11/15 05:43:46;;;;;;;8.10;5.67;;;11.50;99.90;;;;;;5112650;28;20192;-75
2022/11/15 05:46:14;;;;;;;7.80;5.47;;;11.40;99.90;;;;;;5117322;27;20407;-76
2022/11/15 05:48:42;;;;;;;8.27;5.43;;;11.40;99.90;;;;;;5113155;28;20410;-76
2022/11/15 05:51:08;;;;;;;7.00;5.00;;;11.30;99.90;;;;;;5114898;28;21027;-76
2022/11/15 05:53:36;;;;;;;7.40;5.57;;;11.30;99.90;;;;;;5114134;28;20407;-76
2022/11/15 05:56:03;;;;;;;6.40;4.97;;;11.20;99.90;;;;;;5115899;28;20208;-76
2022/11/15 05:58:30;;;;;;;7.33;4.77;;;11.10;99.90;;;;;;5114631;28;20418;-76
2022/11/15 06:00:55;;;;;;;6.03;4.50;;;11.10;99.90;;;;;;5115130;28;20466;-77
2022/11/15 06:03:21;;;;;;;5.47;4.43;;;11.00;99.90;;;;;;5114014;28;20493;-77
2022/11/15 06:05:46;;;;;;;8.73;6.27;;;10.90;99.90;;;;;;5114861;28;20172;-76
2022/11/15 06:08:12;;;;;;;5.97;5.37;;;10.90;99.90;;;;;;5113587;28;20693;-75
2022/11/15 06:10:37;;;;;;;8.57;5.70;;;10.90;99.90;;;;;;5111396;28;20188;-76
2022/11/15 06:13:04;;;;;;;12.00;6.30;;;10.80;99.90;;;;;;5113016;28;20224;-76
2022/11/15 06:15:31;;;;;;;6.50;4.07;;;10.70;99.90;;;;;;5112022;28;20173;-75
2022/11/15 06:17:57;;;;;;;6.07;4.90;;;10.70;99.90;;;;;;5112992;28;20425;-76
2022/11/15 06:20:26;;;;;;;5.07;4.10;;;10.70;99.90;;;;;;5113861;28;20501;-76
2022/11/15 06:22:57;;;;;;;13.33;5.13;;;10.60;99.90;;;;;;5113157;28;20455;-76
2022/11/15 06:25:23;;;;;;;5.10;3.87;;;10.60;99.90;;;;;;5113587;28;20415;-76
2022/11/15 06:27:56;;;;;;;6.83;5.23;;;10.50;99.90;;;;;;5114233;28;20425;-76
2022/11/15 06:30:22;;;;;;;6.47;5.03;;;10.50;99.90;;;;;;5115140;28;20195;-76
2022/11/15 06:32:48;;;;;;;5.13;4.30;;;10.50;99.90;;;;;;5114166;28;20487;-76
2022/11/15 06:35:14;;;;;;;4.73;3.90;;;10.40;99.90;;;;;;5113169;28;20418;-76
2022/11/15 06:37:40;;;;;;;6.27;3.80;;;10.40;99.90;;;;;;5113900;28;20177;-76
2022/11/15 06:40:08;;;;;;;8.90;3.97;;;10.30;99.90;;;;;;5114269;28;20799;-75
2022/11/15 06:42:33;;;;;;;3.90;3.50;;;10.20;99.90;;;;;;5112051;28;20454;-76
2022/11/15 06:44:59;;;;;;;5.67;3.63;;;10.30;99.90;;;;;;5111504;28;20406;-76
2022/11/15 06:47:24;;;;;;;3.63;2.77;;;10.20;99.90;;;;;;5112764;28;20173;-76
2022/11/15 06:49:50;;;;;;;5.20;3.67;;;10.20;99.90;;;;;;5112953;28;20168;-76
2022/11/15 06:52:18;;;;;;;7.00;4.43;;;10.20;99.90;;;;;;5115100;27;20559;-76
2022/11/15 06:54:44;;;;;;;9.67;3.60;;;10.10;99.90;;;;;;5123031;27;20161;-76
2022/11/15 06:57:10;;;;;;;6.00;3.30;;;10.00;99.90;;;;;;5114304;28;20451;-77
2022/11/15 06:59:36;;;;;;;6.53;3.43;;;9.90;99.90;;;;;;5114317;28;20537;-77
2022/11/15 07:02:01;;;;;;;4.93;3.03;;;9.90;99.90;;;;;;5113697;28;20442;-77
2022/11/15 07:04:27;;;;;;;5.03;3.03;;;9.90;99.90;;;;;;5113994;28;20395;-76
2022/11/15 07:06:52;;;;;;;4.33;3.33;;;9.90;99.90;;;;;;5111736;28;20229;-75
2022/11/15 07:09:18;;;;;;;3.60;2.50;;;10.00;99.90;;;;;;5113117;28;20239;-75
2022/11/15 07:11:43;;;;;;;4.57;2.40;;;10.00;99.90;;;;;;5112945;28;20234;-76
2022/11/15 07:14:09;;;;;;;3.03;2.30;;;10.00;99.90;;;;;;5111570;28;20654;-75
2022/11/15 07:16:36;;;;;;;3.20;2.43;;;10.00;99.90;;;;;;5112729;28;20191;-75
2022/11/15 07:19:02;;;;;;;3.37;2.47;;;10.10;99.90;;;;;;5113798;28;20168;-77
2022/11/15 07:21:27;;;;;;;3.43;3.00;;;10.10;99.90;;;;;;5113734;28;20919;-76
2022/11/15 07:23:53;;;;;;;9.00;3.00;;;10.10;99.90;;;;;;5113683;28;20200;-76
2022/11/15 07:26:18;;;;;;;2.83;2.53;;;10.20;99.90;;;;;;5111617;28;20173;-76
2022/11/15 07:28:44;;;;;;;5.90;3.70;;;10.30;99.90;;;;;;5111684;28;20161;-75
2022/11/15 07:31:09;;;;;;;4.17;3.00;;;10.30;99.90;;;;;;5112832;28;20695;-75
2022/11/15 07:33:35;;;;;;;4.43;2.90;;;10.30;99.90;;;;;;5113590;28;20161;-76
2022/11/15 07:36:04;;;;;;;10.30;3.33;;;10.30;99.90;;;;;;5112023;28;20168;-76
2022/11/15 07:38:30;;;;;;;3.03;2.47;;;10.40;99.90;;;;;;5111979;28;20963;-76
2022/11/15 07:41:01;;;;;;;8.83;4.00;;;10.50;99.90;;;;;;5112616;28;20437;-76
2022/11/15 07:43:30;;;;;;;5.20;3.80;;;10.70;99.90;;;;;;5113119;28;20969;-77
2022/11/15 07:45:56;;;;;;;6.80;2.70;;;10.80;99.90;;;;;;5112816;28;20416;-76
2022/11/15 07:48:22;;;;;;;5.13;3.43;;;11.00;99.90;;;;;;5112607;28;20390;-75
2022/11/15 07:50:48;;;;;;;7.73;3.33;;;11.10;99.90;;;;;;5112309;28;20819;-76
2022/11/15 07:53:14;;;;;;;5.17;2.97;;;11.30;99.90;;;;;;5112148;28;20394;-76
2022/11/15 07:55:41;;;;;;;7.33;2.57;;;11.60;99.90;;;;;;5111763;28;20207;-77
2022/11/15 07:58:09;;;;;;;3.77;2.90;;;11.80;99.90;;;;;;5113100;28;20160;-76
2022/11/15 08:00:36;;;;;;;2.60;2.23;;;11.80;99.90;;;;;;5125049;28;20417;-76
2022/11/15 08:03:02;;;;;;;4.70;2.60;;;11.90;99.90;;;;;;5113340;28;20458;-77
2022/11/15 08:05:28;;;;;;;5.47;1.80;;;12.10;99.90;;;;;;5113160;28;20442;-77
2022/11/15 08:07:56;;;;;;;4.20;2.33;;;12.20;99.90;;;;;;5113837;28;21098;-77
2022/11/15 08:10:21;;;;;;;3.33;1.87;;;12.30;99.90;;;;;;5112884;28;20575;-77
2022/11/15 08:12:47;;;;;;;4.63;2.37;;;12.40;99.90;;;;;;5111064;28;20410;-76
2022/11/15 08:15:12;;;;;;;2.03;1.57;;;12.60;99.90;;;;;;5111772;28;20665;-76
2022/11/15 08:17:38;;;;;;;4.57;2.30;;;12.70;99.90;;;;;;5111808;28;20172;-76
2022/11/15 08:20:04;;;;;;;1.90;1.30;;;12.70;99.90;;;;;;5111951;28;20173;-76
2022/11/15 08:22:30;;;;;;;2.43;1.50;;;12.70;99.90;;;;;;5112030;28;20193;-76
2022/11/15 08:24:55;;;;;;;2.10;1.10;;;12.70;99.90;;;;;;5111867;28;20489;-76
2022/11/15 08:27:21;;;;;;;3.50;1.57;;;12.80;99.90;;;;;;5112886;28;20176;-76
2022/11/15 08:29:48;;;;;;;1.63;1.37;;;12.90;99.90;;;;;;5112870;28;20229;-77
2022/11/15 08:32:14;;;;;;;3.00;1.30;;;13.20;99.90;;;;;;5113164;28;20192;-76
2022/11/15 08:34:39;;;;;;;2.23;1.40;;;13.40;99.90;;;;;;5112332;28;20487;-77
2022/11/15 08:37:05;;;;;;;2.03;1.07;;;13.50;99.90;;;;;;5115384;28;20181;-77
2022/11/15 08:39:31;;;;;;;1.67;1.20;;;13.70;99.90;;;;;;5116003;28;20248;-76
2022/11/15 08:41:56;;;;;;;3.67;1.70;;;14.00;99.90;;;;;;5115727;28;20605;-75
2022/11/15 08:44:23;;;;;;;2.20;1.27;;;14.30;99.90;;;;;;5117336;28;20543;-75
2022/11/15 08:46:49;;;;;;;2.13;1.47;;;14.40;99.90;;;;;;5115375;28;20165;-76
2022/11/15 08:49:15;;;;;;;2.60;2.23;;;14.50;99.90;;;;;;5114401;28;20808;-77
2022/11/15 08:51:40;;;;;;;2.37;2.13;;;14.70;99.90;;;;;;5115356;28;20507;-77
2022/11/15 08:54:06;;;;;;;2.33;1.67;;;14.70;99.90;;;;;;5116635;28;20165;-78
2022/11/15 08:56:31;;;;;;;2.00;1.53;;;14.80;99.90;;;;;;5115820;28;20173;-77
2022/11/15 08:58:57;;;;;;;2.00;1.80;;;14.70;99.90;;;;;;5117556;28;20161;-77
2022/11/15 09:01:23;;;;;;;2.43;1.50;;;15.00;99.90;;;;;;5117181;28;20212;-77
2022/11/15 09:03:48;;;;;;;2.80;1.87;;;15.10;99.90;;;;;;5118052;28;20224;-78
2022/11/15 09:06:14;;;;;;;2.57;1.63;;;15.10;99.90;;;;;;5116539;28;20434;-77
2022/11/15 09:08:40;;;;;;;3.50;1.37;;;15.30;99.90;;;;;;5116147;27;20204;-77
2022/11/15 09:11:08;;;;;;;3.67;1.97;;;15.70;99.90;;;;;;5126437;27;20430;-76
2022/11/15 09:13:34;;;;;;;2.20;1.53;;;16.10;99.90;;;;;;5115147;28;20442;-76
2022/11/15 09:16:01;;;;;;;2.63;1.30;;;16.80;99.90;;;;;;5114987;28;20406;-76
2022/11/15 09:18:27;;;;;;;3.10;1.70;;;17.40;99.90;;;;;;5113706;28;20786;-77
2022/11/15 09:20:56;;;;;;;3.40;1.83;;;18.20;99.90;;;;;;5114969;28;20438;-77
2022/11/15 09:23:22;;;;;;;2.90;1.50;;;18.40;99.90;;;;;;5115572;27;20462;-77
2022/11/15 09:25:48;;;;;;;2.97;1.67;;;18.20;99.90;;;;;;5115362;28;20398;-77
2022/11/15 09:28:13;;;;;;;2.70;1.60;;;17.90;99.90;;;;;;5115630;28;20398;-77
2022/11/15 09:30:39;;;;;;;5.40;1.87;;;17.60;99.90;;;;;;5113948;28;20212;-77
2022/11/15 09:33:09;;;;;;;3.43;1.40;;;17.20;99.90;;;;;;5114723;28;20173;-77
2022/11/15 09:35:35;;;;;;;1.70;1.47;;;16.80;99.90;;;;;;5115382;28;20187;-77
2022/11/15 09:38:00;;;;;;;1.93;1.70;;;16.80;99.90;;;;;;5115779;28;20403;-76
2022/11/15 09:40:26;;;;;;;1.50;1.20;;;16.60;99.90;;;;;;5114370;28;20169;-76
2022/11/15 09:43:17;;;;;;;2.13;1.20;;;16.30;99.90;;;;;;5114581;28;20450;-76
2022/11/15 09:46:03;;;;;;;2.70;1.97;;;16.50;99.90;;;;;;5113179;28;20165;-77
2022/11/15 09:48:35;;;;;;;3.37;2.03;;;16.50;99.90;;;;;;5115079;28;20395;-76
2022/11/15 09:51:04;;;;;;;1.40;1.30;;;16.70;99.90;;;;;;5113344;28;20433;-76
2022/11/15 09:53:35;;;;;;;1.30;1.10;;;16.40;99.90;;;;;;5114243;28;20414;-76
2022/11/15 09:56:03;;;;;;;1.43;1.20;;;16.90;99.90;;;;;;5113108;28;20826;-76
2022/11/15 09:59:07;;;;;;;3.00;1.40;;;17.40;99.90;;;;;;5112626;28;20414;-76
2022/11/15 10:01:43;;;;;;;1.43;1.30;;;17.80;99.90;;;;;;5111890;28;20425;-76
2022/11/15 10:04:09;;;;;;;1.70;1.20;;;17.70;99.90;;;;;;5113486;28;20418;-75
2022/11/15 10:06:39;;;;;;;1.40;1.30;;;17.90;99.90;;;;;;5111903;28;20953;-76
2022/11/15 10:09:16;;;;;;;2.27;1.37;;;18.00;99.90;;;;;;5113324;28;20535;-76
2022/11/15 10:11:42;;;;;;;2.40;1.40;;;18.20;99.90;;;;;;5113328;28;20406;-76
2022/11/15 10:14:15;;;;;;;1.87;1.67;;;18.40;99.90;;;;;;5113070;28;20411;-76
2022/11/15 10:17:19;;;;;;;2.53;1.70;;;18.50;99.10;;;;;;5113757;28;20758;-77
2022/11/15 10:19:57;;;;;;;2.60;1.67;;;18.00;98.40;;;;;;5114399;28;20413;-77
2022/11/15 10:22:28;;;;;;;1.60;1.50;;;18.00;98.60;;;;;;5122305;27;20456;-77
2022/11/15 10:25:16;;;;;;;3.20;1.80;;;18.40;96.90;;;;;;5127422;27;20449;-77
2022/11/15 10:27:43;;;;;;;2.10;1.90;;;18.90;94.80;;;;;;5112792;28;20460;-77
2022/11/15 10:30:13;;;;;;;1.67;1.57;;;19.20;91.90;;;;;;5113906;28;20435;-76
2022/11/15 10:32:41;;;;;;;2.70;1.80;;;19.50;88.80;;;;;;5113793;28;20463;-76
2022/11/15 10:35:20;;;;;;;1.60;1.30;;;19.80;86.50;;;;;;5113121;28;20415;-75
2022/11/15 10:37:46;;;;;;;4.50;1.23;;;20.10;80.90;;;;;;5113396;28;20401;-74
2022/11/15 10:40:17;;;;;;;1.60;1.10;;;20.30;79.50;;;;;;5112785;28;20449;-74
2022/11/15 10:42:45;;;;;;;4.40;0.90;;;20.50;77.90;;;;;;5112594;28;20511;-75
2022/11/15 10:45:29;;;;;;;1.53;0.97;;;20.00;76.00;;;;;;5112491;28;20395;-75
2022/11/15 10:48:20;;;;;;;3.03;0.83;;;20.00;74.10;;;;;;5113187;28;20820;-76
2022/11/15 10:50:47;;;;;;;3.20;0.97;;;19.70;72.80;;;;;;5112961;28;20418;-76
2022/11/15 10:53:41;;;;;;;1.10;0.60;;;19.70;71.40;;;;;;5113147;28;20406;-77
2022/11/15 10:56:11;;;;;;;1.43;0.90;;;19.80;72.40;;;;;;5113112;28;21019;-77
2022/11/15 10:58:40;;;;;;;2.13;0.90;;;20.10;72.20;;;;;;5112757;28;20923;-75
2022/11/15 11:01:24;;;;;;;1.50;0.87;;;20.20;70.70;;;;;;5113005;28;20422;-76
2022/11/15 11:04:07;;;;;;;1.20;0.70;;;20.20;69.60;;;;;;5112624;28;20838;-75
2022/11/15 11:06:49;;;;;;;4.70;0.80;;;20.30;69.10;;;;;;5112915;28;20403;-77
2022/11/15 11:09:26;;;;;;;2.03;0.63;;;20.90;67.20;;;;;;5112690;28;20485;-75
2022/11/15 11:11:52;;;;;;;2.07;0.90;;;21.30;66.10;;;;;;5112028;28;20418;-76
2022/11/15 11:14:27;;;;;;;1.10;0.70;;;21.20;63.30;;;;;;5110908;28;20949;-76
2022/11/15 11:16:52;;;;;;;2.13;0.87;;;21.30;64.10;;;;;;5112526;28;20164;-76
2022/11/15 11:19:35;;;;;;;1.53;0.93;;;20.90;62.80;;;;;;5112690;28;20429;-75
2022/11/15 11:22:11;;;;;;;1.53;0.93;;;20.90;64.00;;;;;;5110586;28;20576;-76
2022/11/15 11:25:01;;;;;;;2.80;0.97;;;20.10;63.10;;;;;;5112362;28;20405;-76
2022/11/15 11:27:59;;;;;;;3.67;0.90;;;20.50;64.80;;;;;;5112475;28;20393;-75
2022/11/15 11:30:38;;;;;;;5.93;1.00;;;20.60;66.50;;;;;;5112106;28;20449;-76
2022/11/15 11:33:27;;;;;;;1.73;0.70;;;21.10;64.80;;;;;;5122790;28;20416;-75
2022/11/15 11:36:07;;;;;;;3.90;0.80;;;21.00;62.60;;;;;;5090847;28;20407;-75
2022/11/15 11:38:53;;;;;;;1.77;0.70;;;21.10;63.10;;;;;;5092706;28;20928;-75
2022/11/15 11:41:44;;;;;;;2.40;0.93;;;21.10;62.80;;;;;;5090598;28;20597;-75
2022/11/15 11:44:28;;;;;;;2.00;1.00;;;21.30;63.20;;;;;;5090571;28;20863;-75
2022/11/15 11:47:05;;;;;;;2.43;0.83;;;21.80;63.20;;;;;;5091882;28;20395;-75
2022/11/15 11:49:45;;;;;;;1.67;0.83;;;21.60;62.50;;;;;;5091774;28;20406;-76
2022/11/15 11:52:17;;;;;;;1.90;0.93;;;21.50;62.80;;;;;;5105246;28;20434;-77
2022/11/15 11:55:02;;;;;;;1.97;1.00;;;20.70;64.00;;;;;;5114900;28;20455;-78
2022/11/15 11:57:45;;;;;;;1.40;0.90;;;20.20;66.30;;;;;;5114332;28;20406;-77
2022/11/15 12:00:21;;;;;;;2.60;0.80;;;19.60;68.70;;;;;;5113257;28;20748;-77
2022/11/15 12:03:25;;;;;;;1.50;0.90;;;19.10;69.60;;;;;;5112637;28;20442;-76
2022/11/15 12:06:17;;;;;;;1.60;1.30;;;18.90;72.60;;;;;;5088021;28;20436;-76
2022/11/15 12:09:01;;;;;;;3.00;1.10;;;19.30;75.70;;;;;;5090053;28;20438;-76
2022/11/15 12:11:43;;;;;;;2.40;0.90;;;19.60;73.60;;;;;;5116443;28;20421;-77
2022/11/15 12:14:44;;;;;;;2.70;1.00;;;20.50;73.20;;;;;;5116059;28;20398;-75
2022/11/15 12:17:13;;;;;;;5.00;1.00;;;20.50;70.20;;;;;;5116203;28;20414;-76
2022/11/15 12:19:40;;;;;;;1.67;0.97;;;20.20;69.80;;;;;;5114751;28;20406;-76
2022/11/15 12:22:17;;;;;;;1.63;0.83;;;19.40;69.80;;;;;;5114590;28;20529;-76
2022/11/15 12:24:53;;;;;;;4.93;1.13;;;18.90;72.90;;;;;;5114280;28;20418;-76
2022/11/15 12:27:21;;;;;;;4.87;1.10;;;18.40;75.30;;;;;;5116018;28;20445;-76
2022/11/15 12:29:52;;;;;;;1.97;1.33;;;17.90;78.00;;;;;;5117882;28;20418;-77
2022/11/15 12:32:48;;;;;;;4.40;1.27;;;17.90;81.80;;;;;;5117633;28;20434;-77
2022/11/15 12:35:40;;;;;;;2.13;1.17;;;17.80;85.60;;;;;;5117428;28;20405;-78
2022/11/15 12:38:10;;;;;;;2.20;1.30;;;18.00;85.90;;;;;;5087953;28;20411;-78
2022/11/15 12:40:38;;;;;;;6.00;1.70;;;18.00;86.40;;;;;;5109133;27;20401;-77
2022/11/15 12:43:09;;;;;;;2.30;1.37;;;18.50;87.20;;;;;;5111937;27;20447;-77
2022/11/15 12:45:38;;;;;;;3.17;1.20;;;19.00;83.70;;;;;;5094991;28;20407;-77
2022/11/15 12:48:15;;;;;;;3.90;1.30;;;18.90;82.90;;;;;;5104363;28;20494;-77
2022/11/15 12:50:50;;;;;;;2.80;1.00;;;18.20;84.10;;;;;;5116012;28;20999;-77
2022/11/15 12:53:25;;;;;;;2.37;1.50;;;17.60;88.40;;;;;;5114695;28;20441;-77
2022/11/15 12:56:12;;;;;;;3.23;1.43;;;17.20;91.40;;;;;;5115669;28;20406;-77
2022/11/15 12:58:46;;;;;;;2.70;1.00;;;17.10;94.70;;;;;;5115616;28;20413;-77
2022/11/15 13:01:30;;;;;;;5.00;1.50;;;16.90;97.50;;;;;;5115484;28;20452;-77
2022/11/15 13:04:24;;;;;;;5.33;1.47;;;17.00;99.70;;;;;;5115929;27;20449;-76
2022/11/15 13:07:02;;;;;;;3.87;1.30;;;17.00;99.90;;;;;;5115663;28;20751;-75
2022/11/15 13:09:35;;;;;;;6.77;1.03;;;17.10;99.90;;;;;;5114581;28;20459;-75